createdAt,value
2023-05-17T00:00:49.949Z,41.99
2023-05-17T00:01:49.953Z,41.10
2023-05-17T00:02:49.974Z,42.55
2023-05-17T00:03:49.921Z,43.57
2023-05-17T00:04:49.935Z,43.83
2023-05-17T00:05:49.908Z,44.44
2023-05-17T00:06:49.891Z,45.84
2023-05-17T00:07:50.074Z,47.90
2023-05-17T00:08:49.865Z,45.19
2023-05-17T00:09:49.868Z,43.31
2023-05-17T00:10:49.861Z,44.42
2023-05-17T00:11:49.849Z,43.85
2023-05-17T00:12:49.826Z,45.37
2023-05-17T00:13:49.821Z,43.71
2023-05-17T00:14:49.804Z,45.15
2023-05-17T00:15:49.795Z,44.74
2023-05-17T00:16:49.797Z,45.42
2023-05-17T00:17:49.841Z,44.74
2023-05-17T00:18:49.966Z,43.97
2023-05-17T00:19:49.971Z,43.04
2023-05-17T00:20:49.748Z,43.54
2023-05-17T00:21:50.869Z,43.72
2023-05-17T00:22:50.848Z,44.31
2023-05-17T00:23:50.907Z,43.78
2023-05-17T00:24:50.830Z,44.53
2023-05-17T00:25:50.816Z,42.93
2023-05-17T00:26:50.814Z,42.77
2023-05-17T00:27:50.885Z,42.50
2023-05-17T00:28:50.789Z,43.51
2023-05-17T00:29:50.778Z,43.90
2023-05-17T00:30:50.772Z,42.24
2023-05-17T00:31:50.750Z,43.37
2023-05-17T00:32:50.766Z,45.02
2023-05-17T00:33:50.726Z,45.38
2023-05-17T00:34:50.750Z,44.60
2023-05-17T00:35:50.721Z,44.14
2023-05-17T00:36:50.703Z,44.89
2023-05-17T00:37:50.704Z,45.10
2023-05-17T00:38:50.685Z,45.27
2023-05-17T00:39:50.813Z,44.81
2023-05-17T00:40:50.678Z,44.78
2023-05-17T00:41:50.658Z,44.19
2023-05-17T00:42:50.646Z,44.59
2023-05-17T00:43:50.645Z,44.20
2023-05-17T00:44:50.652Z,44.01
2023-05-17T00:45:50.628Z,44.05
2023-05-17T00:46:50.612Z,45.08
2023-05-17T00:47:50.656Z,43.91
2023-05-17T00:48:50.660Z,44.34
2023-05-17T00:49:50.574Z,43.61
2023-05-17T00:50:50.564Z,44.76
2023-05-17T00:51:50.559Z,44.12
2023-05-17T00:52:50.542Z,44.06
2023-05-17T00:53:50.552Z,42.52
2023-05-17T00:54:50.532Z,42.84
2023-05-17T00:55:50.615Z,44.48
2023-05-17T00:56:50.507Z,44.16
2023-05-17T00:57:50.506Z,41.50
2023-05-17T00:58:50.572Z,42.93
2023-05-17T00:59:50.484Z,42.13
2023-05-17T01:00:50.483Z,43.89
2023-05-17T01:01:50.459Z,44.78
2023-05-17T01:02:50.508Z,44.55
2023-05-17T01:03:50.608Z,42.23
2023-05-17T01:04:50.482Z,43.94
2023-05-17T01:05:50.420Z,43.85
2023-05-17T01:06:50.420Z,43.56
2023-05-17T01:07:50.405Z,44.38
2023-05-17T01:08:50.399Z,44.81
2023-05-17T01:09:50.389Z,46.69
2023-05-17T01:10:50.378Z,45.36
2023-05-17T01:11:50.510Z,43.37
2023-05-17T01:12:50.366Z,42.06
2023-05-17T01:13:50.367Z,42.84
2023-05-17T01:14:50.329Z,44.09
2023-05-17T01:15:50.318Z,43.02
2023-05-17T01:16:50.332Z,43.65
2023-05-17T01:17:50.440Z,43.32
2023-05-17T01:18:50.412Z,40.63
2023-05-17T01:19:50.435Z,40.91
2023-05-17T01:20:50.265Z,44.68
2023-05-17T01:21:50.273Z,44.07
2023-05-17T01:22:50.264Z,48.20
2023-05-17T01:23:50.251Z,45.69
2023-05-17T01:24:50.224Z,43.59
2023-05-17T01:25:51.251Z,42.85
2023-05-17T01:26:50.224Z,43.92
2023-05-17T01:27:50.318Z,44.38
2023-05-17T01:28:50.197Z,46.27
2023-05-17T01:29:50.183Z,40.97
2023-05-17T01:30:50.201Z,42.77
2023-05-17T01:31:50.168Z,42.87
2023-05-17T01:32:50.187Z,44.64
2023-05-17T01:33:50.225Z,44.30
2023-05-17T01:34:50.133Z,43.48
2023-05-17T01:35:50.130Z,42.80
2023-05-17T01:36:50.113Z,42.64
2023-05-17T01:37:50.098Z,42.88
2023-05-17T01:38:50.090Z,42.73
2023-05-17T01:39:50.091Z,41.84
2023-05-17T01:40:50.079Z,42.81
2023-05-17T01:41:50.069Z,42.54
2023-05-17T01:42:50.056Z,42.49
2023-05-17T01:43:50.124Z,41.21
2023-05-17T01:44:50.036Z,42.84
2023-05-17T01:45:50.011Z,45.53
2023-05-17T01:46:49.993Z,43.00
2023-05-17T01:47:50.019Z,44.93
2023-05-17T01:48:50.005Z,45.79
2023-05-17T01:49:49.990Z,41.88
2023-05-17T01:50:49.953Z,45.17
2023-05-17T01:51:49.960Z,44.16
2023-05-17T01:52:49.952Z,43.28
2023-05-17T01:53:49.945Z,42.36
2023-05-17T01:54:49.934Z,46.85
2023-05-17T01:55:49.939Z,43.27
2023-05-17T01:56:49.919Z,43.29
2023-05-17T01:57:49.890Z,45.09
2023-05-17T01:58:49.887Z,42.69
2023-05-17T01:59:50.027Z,44.97
2023-05-17T02:00:49.866Z,44.43
2023-05-17T02:01:49.852Z,44.63
2023-05-17T02:02:49.854Z,44.48
2023-05-17T02:03:49.905Z,44.18
2023-05-17T02:04:49.855Z,45.72
2023-05-17T02:05:49.810Z,44.22
2023-05-17T02:06:49.811Z,44.26
2023-05-17T02:07:49.797Z,46.49
2023-05-17T02:08:49.793Z,42.94
2023-05-17T02:09:49.771Z,45.43
2023-05-17T02:10:49.762Z,47.57
2023-05-17T02:11:49.752Z,49.25
2023-05-17T02:12:49.747Z,44.35
2023-05-17T02:13:49.728Z,46.94
2023-05-17T02:14:49.718Z,47.08
2023-05-17T02:15:49.801Z,46.10
2023-05-17T02:16:49.701Z,45.54
2023-05-17T02:17:49.847Z,45.71
2023-05-17T02:18:49.845Z,44.69
2023-05-17T02:19:49.674Z,44.14
2023-05-17T02:20:49.667Z,43.58
2023-05-17T02:21:49.658Z,47.96
2023-05-17T02:22:49.674Z,44.79
2023-05-17T02:23:49.633Z,45.12
2023-05-17T02:24:49.645Z,45.32
2023-05-17T02:25:49.611Z,48.21
2023-05-17T02:26:49.625Z,44.58
2023-05-17T02:27:49.614Z,43.14
2023-05-17T02:28:49.587Z,43.99
2023-05-17T02:29:49.578Z,44.86
2023-05-17T02:30:49.578Z,45.29
2023-05-17T02:31:49.628Z,46.10
2023-05-17T02:32:49.650Z,45.18
2023-05-17T02:33:49.600Z,47.15
2023-05-17T02:34:49.532Z,46.68
2023-05-17T02:35:49.533Z,49.38
2023-05-17T02:36:49.518Z,48.22
2023-05-17T02:37:49.507Z,48.39
2023-05-17T02:38:49.494Z,51.38
2023-05-17T02:39:49.489Z,52.19
2023-05-17T02:40:49.506Z,51.03
2023-05-17T02:41:49.482Z,50.22
2023-05-17T02:42:49.455Z,50.52
2023-05-17T02:43:49.443Z,50.43
2023-05-17T02:44:49.439Z,51.07
2023-05-17T02:45:49.436Z,53.50
2023-05-17T02:46:49.439Z,54.13
2023-05-17T02:47:49.526Z,53.40
2023-05-17T02:48:49.391Z,53.45
2023-05-17T02:49:49.394Z,52.59
2023-05-17T02:50:49.385Z,54.13
2023-05-17T02:51:49.369Z,53.28
2023-05-17T02:52:49.355Z,53.59
2023-05-17T02:53:49.345Z,57.11
2023-05-17T02:54:49.342Z,54.72
2023-05-17T02:55:49.332Z,54.23
2023-05-17T02:56:49.312Z,56.95
2023-05-17T02:57:49.306Z,51.90
2023-05-17T02:58:49.302Z,52.32
2023-05-17T02:59:49.298Z,52.65
2023-05-17T03:00:49.284Z,53.30
2023-05-17T03:01:49.267Z,53.93
2023-05-17T03:02:49.346Z,53.35
2023-05-17T03:03:49.630Z,53.02
2023-05-17T03:04:49.269Z,52.69
2023-05-17T03:05:49.221Z,54.31
2023-05-17T03:06:49.229Z,53.41
2023-05-17T03:07:49.210Z,53.25
2023-05-17T03:08:49.215Z,52.34
2023-05-17T03:09:49.197Z,51.94
2023-05-17T03:10:49.211Z,53.14
2023-05-17T03:11:50.177Z,54.36
2023-05-17T03:12:49.160Z,54.22
2023-05-17T03:13:49.168Z,51.92
2023-05-17T03:14:49.152Z,54.60
2023-05-17T03:15:49.123Z,52.55
2023-05-17T03:16:49.129Z,55.22
2023-05-17T03:17:49.152Z,51.72
2023-05-17T03:18:49.253Z,55.71
2023-05-17T03:19:49.312Z,53.31
2023-05-17T03:20:49.075Z,54.53
2023-05-17T03:21:49.075Z,54.74
2023-05-17T03:22:49.070Z,55.06
2023-05-17T03:23:49.063Z,52.90
2023-05-17T03:24:49.042Z,56.03
2023-05-17T03:25:49.026Z,53.72
2023-05-17T03:26:49.030Z,52.99
2023-05-17T03:27:49.089Z,54.41
2023-05-17T03:28:49.011Z,55.41
2023-05-17T03:29:49.006Z,54.17
2023-05-17T03:30:48.987Z,54.84
2023-05-17T03:31:48.967Z,54.50
2023-05-17T03:32:49.043Z,53.61
2023-05-17T03:33:49.046Z,52.55
2023-05-17T03:34:48.947Z,53.52
2023-05-17T03:35:49.051Z,52.84
2023-05-17T03:36:48.924Z,53.51
2023-05-17T03:37:48.931Z,53.36
2023-05-17T03:38:48.893Z,51.54
2023-05-17T03:39:48.894Z,50.55
2023-05-17T03:40:48.879Z,51.56
2023-05-17T03:41:48.885Z,51.07
2023-05-17T03:42:48.870Z,51.34
2023-05-17T03:43:49.861Z,51.32
2023-05-17T03:44:48.863Z,51.11
2023-05-17T03:45:48.838Z,51.97
2023-05-17T03:46:48.845Z,54.82
2023-05-17T03:47:48.863Z,51.77
2023-05-17T03:48:48.881Z,53.90
2023-05-17T03:49:48.797Z,53.66
2023-05-17T03:50:48.804Z,51.62
2023-05-17T03:51:48.800Z,52.64
2023-05-17T03:52:48.784Z,50.96
2023-05-17T03:53:48.772Z,51.01
2023-05-17T03:54:48.751Z,51.65
2023-05-17T03:55:48.806Z,51.39
2023-05-17T03:56:48.788Z,52.24
2023-05-17T03:57:48.755Z,51.75
2023-05-17T03:58:48.806Z,50.16
2023-05-17T03:59:48.704Z,54.25
2023-05-17T04:00:48.732Z,51.28
2023-05-17T04:01:48.675Z,50.90
2023-05-17T04:02:49.691Z,51.62
2023-05-17T04:03:48.723Z,53.77
2023-05-17T04:04:48.694Z,52.03
2023-05-17T04:05:48.667Z,54.79
2023-05-17T04:06:48.642Z,53.48
2023-05-17T04:07:48.715Z,52.75
2023-05-17T04:08:48.625Z,53.81
2023-05-17T04:09:48.608Z,55.63
2023-05-17T04:10:48.609Z,54.69
2023-05-17T04:11:48.600Z,54.01
2023-05-17T04:12:48.578Z,53.06
2023-05-17T04:13:48.576Z,55.72
2023-05-17T04:14:48.562Z,55.54
2023-05-17T04:15:48.581Z,50.93
2023-05-17T04:16:48.552Z,52.08
2023-05-17T04:17:48.633Z,54.04
2023-05-17T04:18:48.609Z,57.84
2023-05-17T04:19:48.536Z,56.42
2023-05-17T04:20:48.511Z,53.08
2023-05-17T04:21:49.497Z,56.19
2023-05-17T04:22:48.480Z,53.74
2023-05-17T04:23:48.569Z,53.78
2023-05-17T04:24:48.494Z,52.86
2023-05-17T04:25:51.220Z,53.97
2023-05-17T04:26:48.480Z,53.51
2023-05-17T04:27:48.433Z,54.90
2023-05-17T04:28:48.432Z,52.22
2023-05-17T04:29:48.427Z,53.90
2023-05-17T04:30:48.403Z,53.31
2023-05-17T04:31:48.396Z,56.86
2023-05-17T04:32:48.462Z,55.83
2023-05-17T04:33:48.378Z,52.57
2023-05-17T04:34:48.374Z,53.72
2023-05-17T04:35:48.351Z,54.44
2023-05-17T04:36:48.340Z,52.02
2023-05-17T04:37:48.335Z,54.80
2023-05-17T04:38:48.336Z,55.06
2023-05-17T04:39:48.391Z,51.89
2023-05-17T04:40:48.310Z,50.85
2023-05-17T04:41:48.297Z,52.84
2023-05-17T04:42:48.285Z,52.12
2023-05-17T04:43:48.298Z,51.39
2023-05-17T04:44:48.287Z,49.47
2023-05-17T04:45:48.265Z,56.76
2023-05-17T04:46:48.327Z,53.28
2023-05-17T04:47:48.272Z,50.87
2023-05-17T04:48:48.368Z,56.61
2023-05-17T04:49:48.221Z,48.85
2023-05-17T04:50:48.211Z,53.21
2023-05-17T04:51:48.215Z,49.53
2023-05-17T04:52:48.198Z,52.99
2023-05-17T04:53:48.193Z,50.94
2023-05-17T04:54:48.170Z,48.99
2023-05-17T04:55:48.172Z,53.11
2023-05-17T04:56:48.147Z,50.75
2023-05-17T04:57:48.169Z,50.50
2023-05-17T04:58:48.134Z,54.90
2023-05-17T04:59:48.120Z,51.56
2023-05-17T05:00:48.118Z,55.15
2023-05-17T05:01:48.098Z,56.35
2023-05-17T05:02:48.166Z,52.23
2023-05-17T05:03:48.246Z,52.21
2023-05-17T05:04:48.108Z,49.01
2023-05-17T05:05:48.064Z,51.62
2023-05-17T05:06:48.077Z,53.11
2023-05-17T05:07:48.052Z,50.84
2023-05-17T05:08:48.028Z,55.53
2023-05-17T05:09:48.033Z,52.86
2023-05-17T05:10:48.016Z,53.72
2023-05-17T05:11:48.169Z,59.16
2023-05-17T05:12:48.043Z,54.37
2023-05-17T05:13:48.040Z,58.49
2023-05-17T05:14:47.988Z,54.25
2023-05-17T05:15:48.010Z,58.92
2023-05-17T05:16:48.012Z,52.31
2023-05-17T05:17:48.115Z,54.34
2023-05-17T05:18:48.120Z,61.16
2023-05-17T05:19:47.964Z,50.93
2023-05-17T05:20:47.963Z,51.89
2023-05-17T05:21:47.967Z,54.81
2023-05-17T05:22:47.917Z,58.13
2023-05-17T05:23:47.908Z,53.50
2023-05-17T05:24:47.893Z,51.44
2023-05-17T05:25:47.907Z,50.96
2023-05-17T05:26:47.860Z,51.29
2023-05-17T05:27:47.931Z,51.80
2023-05-17T05:28:47.860Z,52.10
2023-05-17T05:29:47.846Z,57.77
2023-05-17T05:30:47.855Z,55.68
2023-05-17T05:31:47.827Z,51.24
2023-05-17T05:32:47.871Z,55.89
2023-05-17T05:33:47.921Z,53.33
2023-05-17T05:34:47.809Z,55.16
2023-05-17T05:35:47.790Z,54.42
2023-05-17T05:36:47.789Z,54.17
2023-05-17T05:37:47.759Z,53.79
2023-05-17T05:38:47.741Z,53.30
2023-05-17T05:39:47.751Z,54.39
2023-05-17T05:40:47.726Z,51.69
2023-05-17T05:41:47.713Z,55.90
2023-05-17T05:42:47.706Z,55.85
2023-05-17T05:43:47.841Z,58.03
2023-05-17T05:44:47.698Z,53.23
2023-05-17T05:45:47.681Z,55.37
2023-05-17T05:46:47.650Z,52.12
2023-05-17T05:47:47.703Z,54.33
2023-05-17T05:48:47.702Z,54.04
2023-05-17T05:49:47.635Z,52.14
2023-05-17T05:50:47.619Z,56.28
2023-05-17T05:51:47.611Z,53.05
2023-05-17T05:52:47.586Z,51.30
2023-05-17T05:53:47.609Z,53.50
2023-05-17T05:54:47.571Z,52.07
2023-05-17T05:55:47.567Z,48.88
2023-05-17T05:56:47.569Z,54.66
2023-05-17T05:57:47.547Z,49.38
2023-05-17T05:58:47.553Z,54.54
2023-05-17T05:59:47.594Z,48.55
2023-05-17T06:00:47.518Z,51.56
2023-05-17T06:01:47.497Z,54.62
2023-05-17T06:02:47.534Z,53.77
2023-05-17T06:03:47.497Z,52.27
2023-05-17T06:04:47.473Z,52.53
2023-05-17T06:05:47.524Z,50.83
2023-05-17T06:06:47.579Z,46.08
2023-05-17T06:07:47.447Z,50.59
2023-05-17T06:08:47.438Z,51.32
2023-05-17T06:09:47.412Z,49.10
2023-05-17T06:10:47.412Z,48.57
2023-05-17T06:11:47.397Z,51.92
2023-05-17T06:12:47.395Z,48.65
2023-05-17T06:13:47.385Z,50.44
2023-05-17T06:14:47.374Z,54.92
2023-05-17T06:15:47.433Z,49.48
2023-05-17T06:16:47.362Z,54.58
2023-05-17T06:17:47.422Z,49.77
2023-05-17T06:18:48.755Z,51.28
2023-05-17T06:19:47.388Z,47.00
2023-05-17T06:20:47.292Z,50.24
2023-05-17T06:21:47.302Z,48.64
2023-05-17T06:22:47.295Z,47.26
2023-05-17T06:23:47.273Z,44.29
2023-05-17T06:24:47.262Z,50.29
2023-05-17T06:25:47.254Z,49.67
2023-05-17T06:26:47.244Z,51.38
2023-05-17T06:27:47.231Z,56.44
2023-05-17T06:28:47.227Z,46.25
2023-05-17T06:29:47.204Z,44.93
2023-05-17T06:30:47.224Z,47.17
2023-05-17T06:31:47.282Z,49.66
2023-05-17T06:32:47.248Z,49.02
2023-05-17T06:33:47.215Z,52.04
2023-05-17T06:34:47.162Z,50.88
2023-05-17T06:35:56.216Z,49.49
2023-05-17T06:36:49.147Z,48.35
2023-05-17T06:37:47.123Z,43.33
2023-05-17T06:38:47.110Z,45.51
2023-05-17T06:39:55.583Z,47.92
2023-05-17T06:40:49.090Z,44.44
2023-05-17T06:41:47.095Z,53.18
2023-05-17T06:42:47.081Z,44.64
2023-05-17T06:43:47.062Z,47.49
2023-05-17T06:44:47.066Z,53.91
2023-05-17T06:45:47.061Z,45.99
2023-05-17T06:46:47.052Z,51.08
2023-05-17T06:47:47.179Z,50.23
2023-05-17T06:48:50.780Z,45.13
2023-05-17T06:49:48.167Z,53.52
2023-05-17T06:50:47.025Z,52.79
2023-05-17T06:51:46.991Z,47.83
2023-05-17T06:52:46.980Z,50.05
2023-05-17T06:53:46.978Z,48.23
2023-05-17T06:54:46.958Z,53.01
2023-05-17T06:55:46.998Z,56.37
2023-05-17T06:56:46.971Z,42.46
2023-05-17T06:57:46.925Z,49.51
2023-05-17T06:58:46.907Z,53.63
2023-05-17T06:59:46.901Z,52.97
2023-05-17T07:00:46.922Z,53.30
2023-05-17T07:01:46.877Z,48.75
2023-05-17T07:02:47.734Z,54.02
2023-05-17T07:03:47.097Z,48.90
2023-05-17T07:04:46.925Z,50.60
2023-05-17T07:05:46.846Z,52.87
2023-05-17T07:06:46.837Z,49.12
2023-05-17T07:07:46.834Z,51.03
2023-05-17T07:08:46.809Z,45.48
2023-05-17T07:09:46.818Z,50.34
2023-05-17T07:10:46.792Z,51.87
2023-05-17T07:11:46.785Z,48.57
2023-05-17T07:12:46.790Z,50.42
2023-05-17T07:13:46.951Z,51.87
2023-05-17T07:14:46.897Z,48.20
2023-05-17T07:15:46.743Z,53.45
2023-05-17T07:16:46.733Z,52.09
2023-05-17T07:17:46.809Z,45.49
2023-05-17T07:18:46.819Z,48.54
2023-05-17T07:19:46.909Z,51.12
2023-05-17T07:20:46.695Z,47.19
2023-05-17T07:21:46.714Z,47.62
2023-05-17T07:22:46.693Z,47.71
2023-05-17T07:23:46.681Z,48.91
2023-05-17T07:24:46.729Z,45.54
2023-05-17T07:25:46.696Z,45.52
2023-05-17T07:26:46.636Z,52.11
2023-05-17T07:27:46.674Z,44.15
2023-05-17T07:28:46.629Z,44.28
2023-05-17T07:29:46.617Z,52.02
2023-05-17T07:30:46.662Z,48.67
2023-05-17T07:31:46.617Z,45.60
2023-05-17T07:40:58.937Z,50.07
2023-05-17T07:44:24.846Z,52.11
2023-05-17T07:45:24.934Z,51.60
2023-05-17T07:46:24.885Z,52.47
2023-05-17T07:47:25.492Z,50.74
2023-05-17T07:48:24.964Z,53.88
2023-05-17T07:54:58.454Z,44.12
2023-05-17T07:55:58.667Z,50.80
2023-05-17T07:59:25.043Z,49.04
2023-05-17T08:09:39.930Z,40.48
2023-05-17T08:10:39.922Z,43.39
2023-05-17T08:11:39.922Z,39.90
2023-05-17T08:12:39.864Z,45.85
2023-05-17T08:18:57.962Z,51.46
2023-05-17T08:19:57.846Z,46.29
2023-05-17T08:20:57.796Z,49.66
2023-05-17T08:22:02.022Z,50.54
2023-05-17T08:22:57.659Z,49.24
2023-05-17T08:23:58.288Z,47.34
2023-05-17T08:24:57.649Z,41.65
2023-05-17T08:25:57.647Z,41.40
2023-05-17T08:26:57.848Z,49.83
2023-05-17T08:27:57.605Z,44.83
2023-05-17T08:28:57.597Z,47.98
2023-05-17T08:29:57.609Z,48.01
2023-05-17T08:30:57.603Z,51.22
2023-05-17T08:31:57.563Z,44.08
2023-05-17T08:32:58.889Z,46.41
2023-05-17T08:33:58.738Z,41.14
2023-05-17T08:34:58.735Z,41.11
2023-05-17T08:35:58.686Z,44.76
2023-05-17T08:36:58.682Z,44.21
2023-05-17T08:37:58.696Z,43.93
2023-05-17T08:38:58.636Z,45.72
2023-05-17T08:39:58.738Z,45.51
2023-05-17T08:40:58.673Z,51.46
2023-05-17T08:41:58.604Z,47.40
2023-05-17T08:42:58.591Z,44.61
2023-05-17T08:43:58.668Z,44.62
2023-05-17T08:44:58.571Z,48.41
2023-05-17T08:45:58.631Z,46.21
2023-05-17T08:46:58.566Z,48.56
2023-05-17T08:47:58.674Z,47.31
2023-05-17T08:48:58.584Z,47.26
2023-05-17T08:49:58.539Z,49.10
2023-05-17T08:50:58.522Z,48.01
2023-05-17T08:51:58.559Z,48.19
2023-05-17T08:52:58.588Z,47.72
2023-05-17T08:53:59.496Z,43.52
2023-05-17T08:54:58.474Z,47.07
2023-05-17T08:55:58.452Z,47.44
2023-05-17T08:56:58.452Z,46.17
2023-05-17T08:57:58.480Z,46.75
2023-05-17T08:58:58.461Z,49.65
2023-05-17T08:59:58.431Z,45.69
2023-05-17T09:00:58.421Z,45.50
2023-05-17T09:01:58.409Z,43.84
2023-05-17T09:02:58.499Z,43.89
2023-05-17T09:03:58.389Z,52.66
2023-05-17T09:04:58.557Z,45.95
2023-05-17T09:05:58.507Z,48.74
2023-05-17T09:06:58.347Z,44.34
2023-05-17T09:07:58.323Z,44.47
2023-05-17T09:08:58.486Z,41.87
2023-05-17T09:09:58.292Z,45.94
2023-05-17T09:10:58.329Z,47.78
2023-05-17T09:11:58.293Z,46.53
2023-05-17T09:12:58.280Z,49.50
2023-05-17T09:13:58.265Z,43.91
2023-05-17T09:14:58.260Z,50.80
2023-05-17T09:15:58.255Z,48.34
2023-05-17T09:16:58.302Z,43.15
2023-05-17T09:18:01.815Z,48.48
2023-05-17T09:18:58.320Z,41.87
2023-05-17T09:19:58.364Z,47.24
2023-05-17T09:20:58.200Z,48.17
2023-05-17T09:21:58.209Z,48.69
2023-05-17T09:22:58.174Z,48.35
2023-05-17T09:24:06.476Z,50.81
2023-05-17T09:25:00.198Z,43.23
2023-05-17T09:25:58.158Z,50.03
2023-05-17T09:26:58.174Z,41.66
2023-05-17T09:27:58.117Z,39.87
2023-05-17T09:28:59.151Z,47.51
2023-05-17T09:29:58.103Z,44.28
2023-05-17T09:30:58.109Z,45.65
2023-05-17T09:31:58.102Z,47.60
2023-05-17T09:32:58.086Z,48.82
2023-05-17T09:33:58.124Z,48.31
2023-05-17T09:34:58.072Z,47.63
2023-05-17T09:35:58.076Z,39.84
2023-05-17T09:36:58.035Z,49.05
2023-05-17T09:37:58.031Z,45.62
2023-05-17T09:38:58.039Z,42.23
2023-05-17T09:39:57.992Z,43.37
2023-05-17T09:40:58.037Z,47.42
2023-05-17T09:41:57.989Z,48.68
2023-05-17T09:42:57.977Z,44.95
2023-05-17T09:43:57.985Z,40.64
2023-05-17T09:44:57.960Z,45.44
2023-05-17T09:45:57.963Z,45.70
2023-05-17T09:46:57.924Z,46.57
2023-05-17T09:47:57.997Z,46.49
2023-05-17T09:48:57.970Z,43.21
2023-05-17T09:49:57.920Z,43.18
2023-05-17T09:50:57.913Z,41.22
2023-05-17T09:51:57.872Z,45.58
2023-05-17T09:52:57.893Z,47.06
2023-05-17T09:53:57.853Z,39.37
2023-05-17T09:54:57.879Z,45.70
2023-05-17T09:55:57.858Z,46.18
2023-05-17T09:56:57.827Z,47.17
2023-05-17T09:57:57.833Z,41.87
2023-05-17T09:58:57.877Z,52.59
2023-05-17T09:59:57.853Z,51.48
2023-05-17T10:00:57.816Z,44.17
2023-05-17T10:01:57.797Z,48.41
2023-05-17T10:02:57.850Z,48.44
2023-05-17T10:03:57.805Z,45.61
2023-05-17T10:04:57.823Z,48.94
2023-05-17T10:05:57.739Z,49.07
2023-05-17T10:06:57.724Z,50.67
2023-05-17T10:07:57.717Z,53.68
2023-05-17T10:08:57.734Z,52.01
2023-05-17T10:09:57.727Z,49.08
2023-05-17T10:10:57.701Z,51.29
2023-05-17T10:11:57.699Z,43.82
2023-05-17T10:12:57.709Z,47.47
2023-05-17T10:13:57.697Z,46.06
2023-05-17T10:14:57.823Z,47.56
2023-05-17T10:15:57.664Z,48.81
2023-05-17T10:16:57.658Z,45.90
2023-05-17T10:17:57.752Z,41.81
2023-05-17T10:18:57.751Z,43.16
2023-05-17T10:19:57.755Z,47.13
2023-05-17T10:20:57.619Z,45.78
2023-05-17T10:22:02.300Z,48.63
2023-05-17T10:22:58.817Z,40.92
2023-05-17T10:23:58.579Z,38.39
2023-05-17T10:24:57.565Z,46.52
2023-05-17T10:25:57.557Z,47.33
2023-05-17T10:26:57.552Z,46.81
2023-05-17T10:27:57.548Z,46.69
2023-05-17T10:28:57.551Z,46.67
2023-05-17T10:29:57.509Z,48.84
2023-05-17T10:30:57.511Z,48.94
2023-05-17T10:31:57.513Z,51.34
2023-05-17T10:33:00.852Z,45.81
2023-05-17T10:33:57.582Z,48.65
2023-05-17T10:35:10.519Z,47.68
2023-05-17T10:35:59.482Z,48.33
2023-05-17T10:36:57.477Z,46.24
2023-05-17T10:37:57.470Z,44.95
2023-05-17T10:38:57.431Z,49.23
2023-05-17T10:39:57.433Z,46.58
2023-05-17T10:40:57.408Z,43.96
2023-05-17T10:42:07.141Z,49.40
2023-05-17T10:42:59.406Z,51.41
2023-05-17T10:43:57.382Z,51.39
2023-05-17T10:44:57.362Z,46.72
2023-05-17T10:45:57.349Z,47.15
2023-05-17T10:46:57.385Z,49.31
2023-05-17T10:47:59.032Z,49.05
2023-05-17T10:48:57.467Z,44.53
2023-05-17T10:49:57.322Z,46.05
2023-05-17T10:51:01.747Z,45.40
2023-05-17T10:51:58.330Z,46.52
2023-05-17T10:52:57.294Z,44.20
2023-05-17T10:53:57.276Z,46.48
2023-05-17T10:54:57.287Z,47.01
2023-05-17T10:55:57.254Z,48.85
2023-05-17T10:56:57.259Z,43.99
2023-05-17T10:57:57.230Z,47.45
2023-05-17T10:58:57.243Z,46.45
2023-05-17T10:59:57.220Z,45.35
2023-05-17T11:00:57.211Z,48.30
2023-05-17T11:01:57.196Z,43.10
2023-05-17T11:02:57.226Z,42.79
2023-05-17T11:03:57.203Z,46.43
2023-05-17T11:04:57.264Z,39.66
2023-05-17T11:05:57.258Z,43.15
2023-05-17T11:06:57.349Z,47.06
2023-05-17T11:07:57.159Z,49.45
2023-05-17T11:08:57.149Z,39.80
2023-05-17T11:09:58.151Z,41.22
2023-05-17T11:10:57.123Z,49.01
2023-05-17T11:11:57.135Z,41.08
2023-05-17T11:12:57.087Z,47.63
2023-05-17T11:13:57.133Z,41.96
2023-05-17T11:14:57.112Z,47.96
2023-05-17T11:15:57.129Z,49.33
2023-05-17T11:16:58.246Z,50.75
2023-05-17T11:17:57.198Z,47.23
2023-05-17T11:18:57.249Z,48.82
2023-05-17T11:19:57.070Z,45.21
2023-05-17T11:20:57.154Z,42.93
2023-05-17T11:21:56.997Z,50.20
2023-05-17T11:22:57.006Z,44.52
2023-05-17T11:23:56.993Z,47.01
2023-05-17T11:24:56.975Z,44.56
2023-05-17T11:26:00.417Z,44.40
2023-05-17T11:26:57.949Z,45.35
2023-05-17T11:27:56.957Z,51.06
2023-05-17T11:28:56.957Z,50.58
2023-05-17T11:29:56.944Z,53.12
2023-05-17T11:30:56.945Z,53.85
2023-05-17T11:31:56.920Z,54.92
2023-05-17T11:32:56.932Z,49.13
2023-05-17T11:33:56.907Z,47.44
2023-05-17T11:34:56.887Z,43.37
2023-05-17T11:35:56.873Z,46.94
2023-05-17T11:36:56.853Z,45.43
2023-05-17T11:37:56.838Z,48.00
2023-05-17T11:39:07.441Z,45.86
2023-05-17T11:39:58.858Z,42.08
2023-05-17T11:40:56.811Z,47.74
2023-05-17T11:41:56.808Z,46.34
2023-05-17T11:42:56.822Z,43.50
2023-05-17T11:43:56.806Z,47.60
2023-05-17T11:44:56.768Z,45.95
2023-05-17T11:45:56.776Z,44.95
2023-05-17T11:46:56.800Z,48.36
2023-05-17T11:47:56.830Z,40.76
2023-05-17T11:48:56.942Z,41.56
2023-05-17T11:49:56.804Z,45.14
2023-05-17T11:50:56.733Z,38.78
2023-05-17T11:51:56.698Z,51.45
2023-05-17T11:52:56.685Z,47.76
2023-05-17T11:53:56.723Z,49.31
2023-05-17T11:54:56.748Z,42.89
2023-05-17T11:55:56.663Z,47.79
2023-05-17T11:56:56.660Z,44.89
2023-05-17T11:57:56.645Z,44.23
2023-05-17T11:58:56.650Z,48.62
2023-05-17T11:59:56.637Z,43.96
2023-05-17T12:00:56.663Z,42.38
2023-05-17T12:01:56.641Z,45.87
2023-05-17T12:02:56.657Z,49.12
2023-05-17T12:03:56.603Z,44.62
2023-05-17T12:04:56.722Z,45.59
2023-05-17T12:05:56.588Z,43.56
2023-05-17T12:06:56.621Z,45.45
2023-05-17T12:07:56.571Z,51.23
2023-05-17T12:08:56.552Z,48.63
2023-05-17T12:09:56.553Z,52.25
2023-05-17T12:10:56.516Z,45.83
2023-05-17T12:11:56.527Z,49.46
2023-05-17T12:12:56.500Z,48.76
2023-05-17T12:13:56.498Z,45.72
2023-05-17T12:14:56.508Z,49.89
2023-05-17T12:15:56.463Z,49.22
2023-05-17T12:16:56.557Z,46.34
2023-05-17T12:17:56.587Z,51.35
2023-05-17T12:18:56.628Z,49.70
2023-05-17T12:19:56.536Z,45.56
2023-05-17T12:20:56.440Z,47.13
2023-05-17T12:21:56.454Z,49.58
2023-05-17T12:22:56.491Z,44.90
2023-05-17T12:23:56.448Z,49.02
2023-05-17T12:24:56.433Z,46.02
2023-05-17T12:25:56.415Z,45.96
2023-05-17T12:26:56.384Z,41.20
2023-05-17T12:27:56.370Z,42.19
2023-05-17T12:28:56.398Z,47.11
2023-05-17T12:29:56.403Z,45.25
2023-05-17T12:30:56.355Z,43.97
2023-05-17T12:31:56.321Z,47.87
2023-05-17T12:32:56.380Z,47.84
2023-05-17T12:33:56.351Z,49.54
2023-05-17T12:34:56.285Z,46.49
2023-05-17T12:35:56.278Z,43.23
2023-05-17T12:36:56.277Z,40.99
2023-05-17T12:37:56.272Z,43.17
2023-05-17T12:38:56.269Z,38.37
2023-05-17T12:39:56.248Z,42.90
2023-05-17T12:40:56.263Z,49.52
2023-05-17T12:41:56.216Z,50.94
2023-05-17T12:42:56.246Z,45.37
2023-05-17T12:44:06.299Z,42.80
2023-05-17T12:44:58.205Z,40.66
2023-05-17T12:45:56.212Z,44.95
2023-05-17T12:46:56.348Z,43.60
2023-05-17T12:47:56.233Z,48.20
2023-05-17T12:48:56.236Z,41.64
2023-05-17T12:49:56.173Z,46.28
2023-05-17T12:50:56.116Z,41.99
2023-05-17T12:51:56.121Z,49.40
2023-05-17T12:52:56.155Z,44.71
2023-05-17T12:53:56.119Z,42.55
2023-05-17T12:54:56.117Z,47.92
2023-05-17T12:55:56.080Z,43.17
2023-05-17T12:56:56.110Z,49.05
2023-05-17T12:57:56.076Z,43.06
2023-05-17T12:58:56.051Z,45.03
2023-05-17T12:59:56.075Z,42.20
2023-05-17T13:00:56.029Z,45.96
2023-05-17T13:01:56.023Z,39.11
2023-05-17T13:02:56.157Z,41.83
2023-05-17T13:03:56.090Z,44.04
2023-05-17T13:04:56.109Z,41.56
2023-05-17T13:05:55.982Z,39.64
2023-05-17T13:06:55.970Z,49.40
2023-05-17T13:07:55.958Z,46.24
2023-05-17T13:08:55.962Z,44.46
2023-05-17T13:09:55.933Z,50.02
2023-05-17T13:10:55.934Z,48.13
2023-05-17T13:11:55.927Z,53.60
2023-05-17T13:12:55.922Z,50.11
2023-05-17T13:13:55.953Z,46.05
2023-05-17T13:14:55.923Z,45.01
2023-05-17T13:15:55.914Z,39.51
2023-05-17T13:16:55.908Z,41.82
2023-05-17T13:17:55.952Z,43.90
2023-05-17T13:18:55.986Z,41.47
2023-05-17T13:19:55.869Z,44.87
2023-05-17T13:20:55.833Z,42.99
2023-05-17T13:21:55.828Z,44.78
2023-05-17T13:22:55.824Z,37.67
2023-05-17T13:23:55.816Z,46.45
2023-05-17T13:24:55.840Z,42.59
2023-05-17T13:25:55.823Z,47.96